sensor_id;sensor_type;location;lat;lon;timestamp;P1;durP1;ratioP1;P2;durP2;ratioP2
66472;SDS011;53291;51.680;8.344;2022-07-25T00:00:23;10.15;;;5.68;;
66472;SDS011;53291;51.680;8.344;2022-07-25T00:02:49;9.27;;;5.93;;
66472;SDS011;53291;51.680;8.344;2022-07-25T00:05:14;8.25;;;6.13;;
66472;SDS011;53291;51.680;8.344;2022-07-25T00:07:40;11.85;;;6.68;;
66472;SDS011;53291;51.680;8.344;2022-07-25T00:10:05;8.20;;;6.07;;
66472;SDS011;53291;51.680;8.344;2022-07-25T00:12:31;9.63;;;7.68;;
66472;SDS011;53291;51.680;8.344;2022-07-25T00:14:57;10.85;;;6.00;;
66472;SDS011;53291;51.680;8.344;2022-07-25T00:17:22;11.18;;;6.95;;
66472;SDS011;53291;51.680;8.344;2022-07-25T00:19:48;9.07;;;6.22;;
66472;SDS011;53291;51.680;8.344;2022-07-25T00:22:13;7.68;;;6.88;;
66472;SDS011;53291;51.680;8.344;2022-07-25T00:24:38;8.77;;;5.60;;
66472;SDS011;53291;51.680;8.344;2022-07-25T00:27:04;8.73;;;6.45;;
66472;SDS011;53291;51.680;8.344;2022-07-25T00:29:29;7.95;;;6.07;;
66472;SDS011;53291;51.680;8.344;2022-07-25T00:31:55;8.65;;;6.18;;
66472;SDS011;53291;51.680;8.344;2022-07-25T00:34:20;8.65;;;6.38;;
66472;SDS011;53291;51.680;8.344;2022-07-25T00:36:45;9.82;;;5.80;;
66472;SDS011;53291;51.680;8.344;2022-07-25T00:39:11;8.02;;;6.65;;
66472;SDS011;53291;51.680;8.344;2022-07-25T00:41:36;8.23;;;5.70;;
66472;SDS011;53291;51.680;8.344;2022-07-25T00:44:02;8.38;;;7.15;;
66472;SDS011;53291;51.680;8.344;2022-07-25T00:46:27;8.07;;;5.78;;
66472;SDS011;53291;51.680;8.344;2022-07-25T00:48:52;8.38;;;6.75;;
66472;SDS011;53291;51.680;8.344;2022-07-25T00:51:18;9.50;;;6.13;;
66472;SDS011;53291;51.680;8.344;2022-07-25T00:53:43;8.93;;;5.63;;
66472;SDS011;53291;51.680;8.344;2022-07-25T00:56:09;8.20;;;5.88;;
66472;SDS011;53291;51.680;8.344;2022-07-25T00:58:35;8.45;;;6.25;;
66472;SDS011;53291;51.680;8.344;2022-07-25T01:01:00;9.57;;;5.93;;
66472;SDS011;53291;51.680;8.344;2022-07-25T01:03:26;9.00;;;6.15;;
66472;SDS011;53291;51.680;8.344;2022-07-25T01:05:52;8.82;;;6.43;;
66472;SDS011;53291;51.680;8.344;2022-07-25T01:08:18;8.80;;;6.00;;
66472;SDS011;53291;51.680;8.344;2022-07-25T01:10:45;9.30;;;6.22;;
66472;SDS011;53291;51.680;8.344;2022-07-25T01:13:11;7.97;;;5.68;;
66472;SDS011;53291;51.680;8.344;2022-07-25T01:15:37;8.57;;;5.45;;
66472;SDS011;53291;51.680;8.344;2022-07-25T01:18:02;8.82;;;5.90;;
66472;SDS011;53291;51.680;8.344;2022-07-25T01:20:29;8.40;;;5.55;;
66472;SDS011;53291;51.680;8.344;2022-07-25T01:22:55;11.35;;;6.10;;
66472;SDS011;53291;51.680;8.344;2022-07-25T01:25:21;10.52;;;6.45;;
66472;SDS011;53291;51.680;8.344;2022-07-25T01:27:47;8.20;;;5.72;;
66472;SDS011;53291;51.680;8.344;2022-07-25T01:30:14;7.80;;;5.63;;
66472;SDS011;53291;51.680;8.344;2022-07-25T01:32:40;8.93;;;6.47;;
66472;SDS011;53291;51.680;8.344;2022-07-25T01:35:06;7.93;;;5.93;;
66472;SDS011;53291;51.680;8.344;2022-07-25T01:37:33;8.48;;;5.72;;
66472;SDS011;53291;51.680;8.344;2022-07-25T01:39:58;8.57;;;5.75;;
66472;SDS011;53291;51.680;8.344;2022-07-25T01:42:24;8.00;;;6.05;;
66472;SDS011;53291;51.680;8.344;2022-07-25T01:44:49;8.32;;;5.97;;
66472;SDS011;53291;51.680;8.344;2022-07-25T01:47:15;9.20;;;5.93;;
66472;SDS011;53291;51.680;8.344;2022-07-25T01:49:41;9.20;;;6.50;;
66472;SDS011;53291;51.680;8.344;2022-07-25T01:52:07;8.93;;;7.07;;
66472;SDS011;53291;51.680;8.344;2022-07-25T01:54:32;7.88;;;5.35;;
66472;SDS011;53291;51.680;8.344;2022-07-25T01:56:58;10.15;;;6.75;;
66472;SDS011;53291;51.680;8.344;2022-07-25T01:59:23;8.93;;;6.40;;
66472;SDS011;53291;51.680;8.344;2022-07-25T02:01:48;8.35;;;5.68;;
66472;SDS011;53291;51.680;8.344;2022-07-25T02:04:14;8.13;;;6.13;;
66472;SDS011;53291;51.680;8.344;2022-07-25T02:06:39;9.60;;;6.57;;
66472;SDS011;53291;51.680;8.344;2022-07-25T02:09:06;8.98;;;6.60;;
66472;SDS011;53291;51.680;8.344;2022-07-25T02:11:31;8.45;;;6.13;;
66472;SDS011;53291;51.680;8.344;2022-07-25T02:13:57;8.43;;;5.88;;
66472;SDS011;53291;51.680;8.344;2022-07-25T02:16:23;8.40;;;5.55;;
66472;SDS011;53291;51.680;8.344;2022-07-25T02:18:48;8.65;;;5.85;;
66472;SDS011;53291;51.680;8.344;2022-07-25T02:21:13;7.15;;;5.88;;
66472;SDS011;53291;51.680;8.344;2022-07-25T02:23:39;7.60;;;5.88;;
66472;SDS011;53291;51.680;8.344;2022-07-25T02:26:04;8.25;;;6.72;;
66472;SDS011;53291;51.680;8.344;2022-07-25T02:28:30;8.70;;;7.38;;
66472;SDS011;53291;51.680;8.344;2022-07-25T02:30:55;9.52;;;6.25;;
66472;SDS011;53291;51.680;8.344;2022-07-25T02:33:21;8.80;;;6.90;;
66472;SDS011;53291;51.680;8.344;2022-07-25T02:35:46;9.52;;;6.93;;
66472;SDS011;53291;51.680;8.344;2022-07-25T02:38:12;9.13;;;6.15;;
66472;SDS011;53291;51.680;8.344;2022-07-25T02:40:44;9.98;;;6.50;;
66472;SDS011;53291;51.680;8.344;2022-07-25T02:43:13;9.52;;;6.00;;
66472;SDS011;53291;51.680;8.344;2022-07-25T02:45:39;10.05;;;6.95;;
66472;SDS011;53291;51.680;8.344;2022-07-25T02:48:05;9.98;;;6.32;;
66472;SDS011;53291;51.680;8.344;2022-07-25T02:50:30;9.73;;;6.70;;
66472;SDS011;53291;51.680;8.344;2022-07-25T02:52:56;9.95;;;6.78;;
66472;SDS011;53291;51.680;8.344;2022-07-25T02:55:21;10.30;;;7.38;;
66472;SDS011;53291;51.680;8.344;2022-07-25T02:57:47;8.88;;;6.25;;
66472;SDS011;53291;51.680;8.344;2022-07-25T03:00:12;8.77;;;6.18;;
66472;SDS011;53291;51.680;8.344;2022-07-25T03:02:39;8.45;;;6.45;;
66472;SDS011;53291;51.680;8.344;2022-07-25T03:05:05;9.20;;;6.47;;
66472;SDS011;53291;51.680;8.344;2022-07-25T03:07:32;9.65;;;6.93;;
66472;SDS011;53291;51.680;8.344;2022-07-25T03:09:57;9.20;;;6.28;;
66472;SDS011;53291;51.680;8.344;2022-07-25T03:12:23;8.82;;;6.05;;
66472;SDS011;53291;51.680;8.344;2022-07-25T03:14:48;8.70;;;6.57;;
66472;SDS011;53291;51.680;8.344;2022-07-25T03:17:14;8.50;;;6.38;;
66472;SDS011;53291;51.680;8.344;2022-07-25T03:19:39;10.10;;;7.05;;
66472;SDS011;53291;51.680;8.344;2022-07-25T03:22:04;10.35;;;7.35;;
66472;SDS011;53291;51.680;8.344;2022-07-25T03:24:30;9.73;;;6.82;;
66472;SDS011;53291;51.680;8.344;2022-07-25T03:26:55;11.15;;;6.88;;
66472;SDS011;53291;51.680;8.344;2022-07-25T03:29:20;10.43;;;6.82;;
66472;SDS011;53291;51.680;8.344;2022-07-25T03:31:46;10.07;;;7.13;;
66472;SDS011;53291;51.680;8.344;2022-07-25T03:34:11;10.63;;;6.47;;
66472;SDS011;53291;51.680;8.344;2022-07-25T03:36:36;8.77;;;6.50;;
66472;SDS011;53291;51.680;8.344;2022-07-25T03:39:02;9.13;;;6.68;;
66472;SDS011;53291;51.680;8.344;2022-07-25T03:41:27;9.30;;;6.50;;
66472;SDS011;53291;51.680;8.344;2022-07-25T03:43:53;10.95;;;7.25;;
66472;SDS011;53291;51.680;8.344;2022-07-25T03:46:19;9.40;;;6.97;;
66472;SDS011;53291;51.680;8.344;2022-07-25T03:48:44;9.82;;;6.90;;
66472;SDS011;53291;51.680;8.344;2022-07-25T03:51:09;9.98;;;6.57;;
66472;SDS011;53291;51.680;8.344;2022-07-25T03:53:35;9.75;;;5.85;;
66472;SDS011;53291;51.680;8.344;2022-07-25T03:56:20;9.30;;;6.32;;
66472;SDS011;53291;51.680;8.344;2022-07-25T03:58:45;9.70;;;7.47;;
66472;SDS011;53291;51.680;8.344;2022-07-25T04:01:11;10.05;;;6.45;;
66472;SDS011;53291;51.680;8.344;2022-07-25T04:03:36;10.68;;;6.90;;
66472;SDS011;53291;51.680;8.344;2022-07-25T04:06:02;10.95;;;6.72;;
66472;SDS011;53291;51.680;8.344;2022-07-25T04:08:27;10.63;;;6.97;;
66472;SDS011;53291;51.680;8.344;2022-07-25T04:10:52;10.90;;;6.40;;
66472;SDS011;53291;51.680;8.344;2022-07-25T04:13:18;11.20;;;6.78;;
66472;SDS011;53291;51.680;8.344;2022-07-25T04:15:43;9.85;;;6.75;;
66472;SDS011;53291;51.680;8.344;2022-07-25T04:18:08;9.88;;;7.53;;
66472;SDS011;53291;51.680;8.344;2022-07-25T04:20:34;10.32;;;7.25;;
66472;SDS011;53291;51.680;8.344;2022-07-25T04:23:01;8.68;;;6.25;;
66472;SDS011;53291;51.680;8.344;2022-07-25T04:25:27;9.15;;;7.47;;
66472;SDS011;53291;51.680;8.344;2022-07-25T04:27:52;9.00;;;6.50;;
66472;SDS011;53291;51.680;8.344;2022-07-25T04:30:17;10.48;;;7.53;;
66472;SDS011;53291;51.680;8.344;2022-07-25T04:32:43;13.32;;;6.88;;
66472;SDS011;53291;51.680;8.344;2022-07-25T04:35:08;8.73;;;6.22;;
66472;SDS011;53291;51.680;8.344;2022-07-25T04:37:33;10.80;;;6.55;;
66472;SDS011;53291;51.680;8.344;2022-07-25T04:40:00;8.77;;;6.30;;
66472;SDS011;53291;51.680;8.344;2022-07-25T04:42:25;11.68;;;6.78;;
66472;SDS011;53291;51.680;8.344;2022-07-25T04:44:52;9.20;;;5.88;;
66472;SDS011;53291;51.680;8.344;2022-07-25T04:47:20;7.75;;;5.95;;
66472;SDS011;53291;51.680;8.344;2022-07-25T04:49:45;9.13;;;6.35;;
66472;SDS011;53291;51.680;8.344;2022-07-25T04:52:11;8.50;;;6.40;;
66472;SDS011;53291;51.680;8.344;2022-07-25T04:54:36;9.98;;;7.35;;
66472;SDS011;53291;51.680;8.344;2022-07-25T04:57:02;9.70;;;6.93;;
66472;SDS011;53291;51.680;8.344;2022-07-25T04:59:29;10.85;;;7.53;;
66472;SDS011;53291;51.680;8.344;2022-07-25T05:01:54;9.77;;;7.53;;
66472;SDS011;53291;51.680;8.344;2022-07-25T05:04:20;9.75;;;7.03;;
66472;SDS011;53291;51.680;8.344;2022-07-25T05:06:45;11.90;;;7.00;;
66472;SDS011;53291;51.680;8.344;2022-07-25T05:09:10;9.57;;;6.60;;
66472;SDS011;53291;51.680;8.344;2022-07-25T05:11:36;10.10;;;6.70;;
66472;SDS011;53291;51.680;8.344;2022-07-25T05:14:01;11.00;;;7.10;;
66472;SDS011;53291;51.680;8.344;2022-07-25T05:16:26;11.15;;;7.28;;
66472;SDS011;53291;51.680;8.344;2022-07-25T05:18:52;9.38;;;6.82;;
66472;SDS011;53291;51.680;8.344;2022-07-25T05:21:17;10.20;;;6.22;;
66472;SDS011;53291;51.680;8.344;2022-07-25T05:23:42;11.48;;;6.85;;
66472;SDS011;53291;51.680;8.344;2022-07-25T05:26:08;9.52;;;6.18;;
66472;SDS011;53291;51.680;8.344;2022-07-25T05:28:34;8.77;;;6.63;;
66472;SDS011;53291;51.680;8.344;2022-07-25T05:30:59;9.25;;;6.15;;
66472;SDS011;53291;51.680;8.344;2022-07-25T05:33:25;9.05;;;6.57;;
66472;SDS011;53291;51.680;8.344;2022-07-25T05:35:50;10.20;;;6.78;;
66472;SDS011;53291;51.680;8.344;2022-07-25T05:38:16;8.68;;;6.72;;
66472;SDS011;53291;51.680;8.344;2022-07-25T05:40:41;8.77;;;6.07;;
66472;SDS011;53291;51.680;8.344;2022-07-25T05:43:07;8.88;;;5.88;;
66472;SDS011;53291;51.680;8.344;2022-07-25T05:45:33;11.90;;;5.90;;
66472;SDS011;53291;51.680;8.344;2022-07-25T05:47:58;9.70;;;6.65;;
66472;SDS011;53291;51.680;8.344;2022-07-25T05:50:24;9.55;;;6.63;;
66472;SDS011;53291;51.680;8.344;2022-07-25T05:52:49;9.45;;;5.82;;
66472;SDS011;53291;51.680;8.344;2022-07-25T05:55:15;7.35;;;5.53;;
66472;SDS011;53291;51.680;8.344;2022-07-25T05:57:41;8.23;;;6.00;;
66472;SDS011;53291;51.680;8.344;2022-07-25T06:00:07;9.85;;;6.25;;
66472;SDS011;53291;51.680;8.344;2022-07-25T06:02:33;8.32;;;5.75;;
66472;SDS011;53291;51.680;8.344;2022-07-25T06:04:58;7.95;;;5.50;;
66472;SDS011;53291;51.680;8.344;2022-07-25T06:07:24;7.97;;;6.03;;
66472;SDS011;53291;51.680;8.344;2022-07-25T06:09:50;7.60;;;5.57;;
66472;SDS011;53291;51.680;8.344;2022-07-25T06:12:15;9.48;;;7.13;;
66472;SDS011;53291;51.680;8.344;2022-07-25T06:14:41;8.57;;;7.07;;
66472;SDS011;53291;51.680;8.344;2022-07-25T06:17:06;7.70;;;5.30;;
66472;SDS011;53291;51.680;8.344;2022-07-25T06:19:32;8.05;;;5.00;;
66472;SDS011;53291;51.680;8.344;2022-07-25T06:21:57;9.13;;;5.45;;
66472;SDS011;53291;51.680;8.344;2022-07-25T06:24:22;8.00;;;5.25;;
66472;SDS011;53291;51.680;8.344;2022-07-25T06:26:48;7.03;;;6.20;;
66472;SDS011;53291;51.680;8.344;2022-07-25T06:29:13;6.65;;;5.20;;
66472;SDS011;53291;51.680;8.344;2022-07-25T06:31:38;6.70;;;4.85;;
66472;SDS011;53291;51.680;8.344;2022-07-25T06:34:04;8.10;;;5.22;;
66472;SDS011;53291;51.680;8.344;2022-07-25T06:36:29;7.43;;;6.38;;
66472;SDS011;53291;51.680;8.344;2022-07-25T06:38:55;7.50;;;5.20;;
66472;SDS011;53291;51.680;8.344;2022-07-25T06:41:20;7.32;;;5.35;;
66472;SDS011;53291;51.680;8.344;2022-07-25T06:43:45;7.25;;;5.50;;
66472;SDS011;53291;51.680;8.344;2022-07-25T06:46:11;7.15;;;5.20;;
66472;SDS011;53291;51.680;8.344;2022-07-25T06:48:36;7.25;;;5.88;;
66472;SDS011;53291;51.680;8.344;2022-07-25T06:51:02;7.82;;;5.00;;
66472;SDS011;53291;51.680;8.344;2022-07-25T06:53:27;9.27;;;6.47;;
66472;SDS011;53291;51.680;8.344;2022-07-25T06:55:53;9.15;;;4.95;;
66472;SDS011;53291;51.680;8.344;2022-07-25T06:58:18;7.35;;;5.82;;
66472;SDS011;53291;51.680;8.344;2022-07-25T07:00:44;7.72;;;6.20;;
66472;SDS011;53291;51.680;8.344;2022-07-25T07:03:10;8.77;;;6.35;;
66472;SDS011;53291;51.680;8.344;2022-07-25T07:05:36;6.80;;;4.65;;
66472;SDS011;53291;51.680;8.344;2022-07-25T07:08:03;7.15;;;6.35;;
66472;SDS011;53291;51.680;8.344;2022-07-25T07:10:29;7.55;;;5.32;;
66472;SDS011;53291;51.680;8.344;2022-07-25T07:13:02;7.20;;;5.78;;
66472;SDS011;53291;51.680;8.344;2022-07-25T07:15:29;7.95;;;5.57;;
66472;SDS011;53291;51.680;8.344;2022-07-25T07:17:55;8.07;;;6.00;;
66472;SDS011;53291;51.680;8.344;2022-07-25T07:20:20;7.00;;;6.07;;
66472;SDS011;53291;51.680;8.344;2022-07-25T07:22:46;8.82;;;6.15;;
66472;SDS011;53291;51.680;8.344;2022-07-25T07:25:13;6.63;;;4.80;;
66472;SDS011;53291;51.680;8.344;2022-07-25T07:27:40;7.00;;;5.75;;
66472;SDS011;53291;51.680;8.344;2022-07-25T07:30:06;7.85;;;6.68;;
66472;SDS011;53291;51.680;8.344;2022-07-25T07:32:32;6.60;;;5.93;;
66472;SDS011;53291;51.680;8.344;2022-07-25T07:34:57;6.80;;;5.78;;
66472;SDS011;53291;51.680;8.344;2022-07-25T07:37:22;7.57;;;5.95;;
66472;SDS011;53291;51.680;8.344;2022-07-25T07:39:48;5.95;;;4.93;;
66472;SDS011;53291;51.680;8.344;2022-07-25T07:42:14;5.88;;;4.90;;
66472;SDS011;53291;51.680;8.344;2022-07-25T07:44:39;6.03;;;4.32;;
66472;SDS011;53291;51.680;8.344;2022-07-25T07:47:04;6.60;;;5.32;;
66472;SDS011;53291;51.680;8.344;2022-07-25T07:49:30;6.57;;;4.93;;
66472;SDS011;53291;51.680;8.344;2022-07-25T07:51:55;6.05;;;4.85;;
66472;SDS011;53291;51.680;8.344;2022-07-25T07:54:24;6.15;;;4.82;;
66472;SDS011;53291;51.680;8.344;2022-07-25T07:57:07;6.55;;;4.70;;
66472;SDS011;53291;51.680;8.344;2022-07-25T07:59:33;6.65;;;4.60;;
66472;SDS011;53291;51.680;8.344;2022-07-25T08:01:58;5.93;;;4.50;;
66472;SDS011;53291;51.680;8.344;2022-07-25T08:04:27;6.50;;;5.03;;
66472;SDS011;53291;51.680;8.344;2022-07-25T08:06:52;5.97;;;4.10;;
66472;SDS011;53291;51.680;8.344;2022-07-25T08:09:18;6.40;;;5.10;;
66472;SDS011;53291;51.680;8.344;2022-07-25T08:11:43;5.93;;;5.32;;
66472;SDS011;53291;51.680;8.344;2022-07-25T08:14:09;6.18;;;5.45;;
66472;SDS011;53291;51.680;8.344;2022-07-25T08:16:34;6.43;;;5.72;;
66472;SDS011;53291;51.680;8.344;2022-07-25T08:18:59;6.03;;;5.00;;
66472;SDS011;53291;51.680;8.344;2022-07-25T08:21:25;6.95;;;4.43;;
66472;SDS011;53291;51.680;8.344;2022-07-25T08:23:50;7.68;;;5.60;;
66472;SDS011;53291;51.680;8.344;2022-07-25T08:26:16;5.93;;;5.25;;
66472;SDS011;53291;51.680;8.344;2022-07-25T08:28:41;6.22;;;4.45;;
66472;SDS011;53291;51.680;8.344;2022-07-25T08:31:07;5.45;;;4.85;;
66472;SDS011;53291;51.680;8.344;2022-07-25T08:33:32;5.70;;;4.70;;
66472;SDS011;53291;51.680;8.344;2022-07-25T08:35:58;5.53;;;4.57;;
66472;SDS011;53291;51.680;8.344;2022-07-25T08:38:25;6.38;;;4.43;;
66472;SDS011;53291;51.680;8.344;2022-07-25T08:40:53;6.65;;;4.40;;
66472;SDS011;53291;51.680;8.344;2022-07-25T08:43:19;6.05;;;5.22;;
66472;SDS011;53291;51.680;8.344;2022-07-25T08:45:51;5.75;;;4.75;;
66472;SDS011;53291;51.680;8.344;2022-07-25T08:48:19;6.50;;;4.82;;
66472;SDS011;53291;51.680;8.344;2022-07-25T08:50:46;5.88;;;5.07;;
66472;SDS011;53291;51.680;8.344;2022-07-25T08:53:16;6.05;;;4.40;;
66472;SDS011;53291;51.680;8.344;2022-07-25T08:55:43;7.75;;;4.95;;
66472;SDS011;53291;51.680;8.344;2022-07-25T08:58:10;7.50;;;4.93;;
66472;SDS011;53291;51.680;8.344;2022-07-25T09:00:38;8.07;;;4.90;;
66472;SDS011;53291;51.680;8.344;2022-07-25T09:03:04;6.13;;;4.90;;
66472;SDS011;53291;51.680;8.344;2022-07-25T09:05:33;6.70;;;4.72;;
66472;SDS011;53291;51.680;8.344;2022-07-25T09:08:07;6.20;;;4.50;;
66472;SDS011;53291;51.680;8.344;2022-07-25T09:10:35;6.53;;;4.50;;
66472;SDS011;53291;51.680;8.344;2022-07-25T09:13:06;7.25;;;5.30;;
66472;SDS011;53291;51.680;8.344;2022-07-25T09:15:39;6.93;;;5.10;;
66472;SDS011;53291;51.680;8.344;2022-07-25T09:18:16;6.70;;;4.38;;
66472;SDS011;53291;51.680;8.344;2022-07-25T09:23:10;6.85;;;4.95;;
66472;SDS011;53291;51.680;8.344;2022-07-25T09:25:40;7.57;;;4.28;;
66472;SDS011;53291;51.680;8.344;2022-07-25T09:30:36;5.40;;;4.30;;
66472;SDS011;53291;51.680;8.344;2022-07-25T09:33:01;6.68;;;4.95;;
66472;SDS011;53291;51.680;8.344;2022-07-25T09:35:33;6.82;;;5.78;;
66472;SDS011;53291;51.680;8.344;2022-07-25T09:38:06;6.32;;;5.05;;
66472;SDS011;53291;51.680;8.344;2022-07-25T09:40:33;6.28;;;4.82;;
66472;SDS011;53291;51.680;8.344;2022-07-25T09:42:58;5.40;;;4.28;;
66472;SDS011;53291;51.680;8.344;2022-07-25T09:45:24;7.18;;;4.68;;
66472;SDS011;53291;51.680;8.344;2022-07-25T09:50:18;8.27;;;5.05;;
66472;SDS011;53291;51.680;8.344;2022-07-25T09:52:44;7.28;;;4.80;;
66472;SDS011;53291;51.680;8.344;2022-07-25T09:55:10;7.85;;;4.47;;
66472;SDS011;53291;51.680;8.344;2022-07-25T09:57:38;6.88;;;5.22;;
66472;SDS011;53291;51.680;8.344;2022-07-25T10:00:04;7.05;;;4.85;;
66472;SDS011;53291;51.680;8.344;2022-07-25T10:02:36;7.47;;;6.13;;
66472;SDS011;53291;51.680;8.344;2022-07-25T10:05:11;7.18;;;5.07;;
66472;SDS011;53291;51.680;8.344;2022-07-25T10:07:41;7.72;;;5.47;;
66472;SDS011;53291;51.680;8.344;2022-07-25T10:10:07;6.13;;;5.32;;
66472;SDS011;53291;51.680;8.344;2022-07-25T10:12:32;6.68;;;5.82;;
66472;SDS011;53291;51.680;8.344;2022-07-25T10:15:03;7.22;;;4.85;;
66472;SDS011;53291;51.680;8.344;2022-07-25T10:17:36;5.82;;;4.80;;
66472;SDS011;53291;51.680;8.344;2022-07-25T10:20:03;6.55;;;4.68;;
66472;SDS011;53291;51.680;8.344;2022-07-25T10:22:40;7.57;;;4.88;;
66472;SDS011;53291;51.680;8.344;2022-07-25T10:25:17;6.47;;;4.93;;
66472;SDS011;53291;51.680;8.344;2022-07-25T10:27:50;6.72;;;4.13;;
66472;SDS011;53291;51.680;8.344;2022-07-25T10:30:34;6.40;;;4.90;;
66472;SDS011;53291;51.680;8.344;2022-07-25T10:33:02;5.97;;;4.93;;
66472;SDS011;53291;51.680;8.344;2022-07-25T10:35:38;6.28;;;4.82;;
66472;SDS011;53291;51.680;8.344;2022-07-25T10:38:04;6.57;;;4.97;;
66472;SDS011;53291;51.680;8.344;2022-07-25T10:40:36;6.22;;;5.25;;
66472;SDS011;53291;51.680;8.344;2022-07-25T10:43:20;5.65;;;4.88;;
66472;SDS011;53291;51.680;8.344;2022-07-25T10:45:53;6.55;;;4.88;;
66472;SDS011;53291;51.680;8.344;2022-07-25T10:48:29;7.13;;;5.10;;
66472;SDS011;53291;51.680;8.344;2022-07-25T10:50:56;7.65;;;5.05;;
66472;SDS011;53291;51.680;8.344;2022-07-25T10:58:52;5.85;;;4.63;;
66472;SDS011;53291;51.680;8.344;2022-07-25T11:06:13;5.60;;;4.88;;
66472;SDS011;53291;51.680;8.344;2022-07-25T11:08:40;5.90;;;4.82;;
66472;SDS011;53291;51.680;8.344;2022-07-25T11:11:07;6.30;;;5.38;;
66472;SDS011;53291;51.680;8.344;2022-07-25T11:13:40;6.13;;;5.10;;
66472;SDS011;53291;51.680;8.344;2022-07-25T11:16:07;7.00;;;5.53;;
66472;SDS011;53291;51.680;8.344;2022-07-25T11:18:34;6.72;;;5.13;;
66472;SDS011;53291;51.680;8.344;2022-07-25T11:21:04;6.70;;;5.45;;
66472;SDS011;53291;51.680;8.344;2022-07-25T11:23:32;6.97;;;5.40;;
66472;SDS011;53291;51.680;8.344;2022-07-25T11:26:05;7.03;;;5.43;;
66472;SDS011;53291;51.680;8.344;2022-07-25T11:28:48;7.95;;;5.30;;
66472;SDS011;53291;51.680;8.344;2022-07-25T11:31:14;7.50;;;5.65;;
66472;SDS011;53291;51.680;8.344;2022-07-25T11:33:42;7.45;;;5.95;;
66472;SDS011;53291;51.680;8.344;2022-07-25T11:36:11;8.20;;;5.65;;
66472;SDS011;53291;51.680;8.344;2022-07-25T11:38:38;8.35;;;5.65;;
66472;SDS011;53291;51.680;8.344;2022-07-25T11:41:04;7.18;;;5.70;;
66472;SDS011;53291;51.680;8.344;2022-07-25T11:43:30;7.82;;;5.57;;
66472;SDS011;53291;51.680;8.344;2022-07-25T11:46:00;6.68;;;5.38;;
66472;SDS011;53291;51.680;8.344;2022-07-25T11:48:38;7.63;;;5.82;;
66472;SDS011;53291;51.680;8.344;2022-07-25T11:51:12;6.95;;;5.15;;
66472;SDS011;53291;51.680;8.344;2022-07-25T11:53:48;6.28;;;5.45;;
66472;SDS011;53291;51.680;8.344;2022-07-25T11:56:19;8.00;;;6.47;;
66472;SDS011;53291;51.680;8.344;2022-07-25T11:58:55;8.35;;;4.80;;
66472;SDS011;53291;51.680;8.344;2022-07-25T12:01:22;7.10;;;5.32;;
66472;SDS011;53291;51.680;8.344;2022-07-25T12:04:06;7.25;;;6.55;;
66472;SDS011;53291;51.680;8.344;2022-07-25T12:06:32;7.40;;;4.88;;
66472;SDS011;53291;51.680;8.344;2022-07-25T12:08:57;7.60;;;6.13;;
66472;SDS011;53291;51.680;8.344;2022-07-25T12:11:38;7.40;;;5.10;;
66472;SDS011;53291;51.680;8.344;2022-07-25T12:14:04;6.85;;;5.93;;
66472;SDS011;53291;51.680;8.344;2022-07-25T12:16:30;7.85;;;5.88;;
66472;SDS011;53291;51.680;8.344;2022-07-25T12:18:57;8.02;;;5.25;;
66472;SDS011;53291;51.680;8.344;2022-07-25T12:21:22;6.85;;;6.15;;
66472;SDS011;53291;51.680;8.344;2022-07-25T12:23:48;10.70;;;6.07;;
66472;SDS011;53291;51.680;8.344;2022-07-25T12:26:13;6.45;;;4.78;;
66472;SDS011;53291;51.680;8.344;2022-07-25T12:28:39;7.30;;;5.38;;
66472;SDS011;53291;51.680;8.344;2022-07-25T12:31:05;7.95;;;6.35;;
66472;SDS011;53291;51.680;8.344;2022-07-25T12:33:30;7.78;;;6.75;;
66472;SDS011;53291;51.680;8.344;2022-07-25T12:35:57;8.18;;;6.47;;
66472;SDS011;53291;51.680;8.344;2022-07-25T12:38:23;9.15;;;6.45;;
66472;SDS011;53291;51.680;8.344;2022-07-25T12:40:49;9.48;;;6.85;;
66472;SDS011;53291;51.680;8.344;2022-07-25T12:43:14;9.20;;;6.38;;
66472;SDS011;53291;51.680;8.344;2022-07-25T12:45:40;7.72;;;5.63;;
66472;SDS011;53291;51.680;8.344;2022-07-25T12:48:06;10.73;;;6.93;;
66472;SDS011;53291;51.680;8.344;2022-07-25T12:50:32;9.00;;;6.25;;
66472;SDS011;53291;51.680;8.344;2022-07-25T12:52:58;9.13;;;7.00;;
66472;SDS011;53291;51.680;8.344;2022-07-25T12:55:23;9.35;;;7.03;;
66472;SDS011;53291;51.680;8.344;2022-07-25T12:57:49;7.88;;;6.03;;
66472;SDS011;53291;51.680;8.344;2022-07-25T13:00:15;7.53;;;5.63;;
66472;SDS011;53291;51.680;8.344;2022-07-25T13:02:42;9.27;;;6.72;;
66472;SDS011;53291;51.680;8.344;2022-07-25T13:05:08;7.57;;;5.25;;
66472;SDS011;53291;51.680;8.344;2022-07-25T13:07:34;8.10;;;6.43;;
66472;SDS011;53291;51.680;8.344;2022-07-25T13:10:00;8.95;;;5.25;;
66472;SDS011;53291;51.680;8.344;2022-07-25T13:12:26;8.48;;;6.65;;
66472;SDS011;53291;51.680;8.344;2022-07-25T13:14:51;8.82;;;7.43;;
66472;SDS011;53291;51.680;8.344;2022-07-25T13:17:17;8.00;;;6.43;;
66472;SDS011;53291;51.680;8.344;2022-07-25T13:19:42;9.15;;;4.63;;
66472;SDS011;53291;51.680;8.344;2022-07-25T13:22:08;6.75;;;5.55;;
66472;SDS011;53291;51.680;8.344;2022-07-25T13:24:33;10.38;;;6.50;;
66472;SDS011;53291;51.680;8.344;2022-07-25T13:27:01;7.75;;;5.40;;
66472;SDS011;53291;51.680;8.344;2022-07-25T13:29:28;7.88;;;5.93;;
66472;SDS011;53291;51.680;8.344;2022-07-25T13:31:53;8.35;;;5.75;;
66472;SDS011;53291;51.680;8.344;2022-07-25T13:34:18;7.20;;;5.90;;
66472;SDS011;53291;51.680;8.344;2022-07-25T13:36:45;7.75;;;6.05;;
66472;SDS011;53291;51.680;8.344;2022-07-25T13:39:10;7.72;;;5.32;;
66472;SDS011;53291;51.680;8.344;2022-07-25T13:41:35;7.38;;;6.38;;
66472;SDS011;53291;51.680;8.344;2022-07-25T13:44:01;7.85;;;6.88;;
66472;SDS011;53291;51.680;8.344;2022-07-25T13:46:26;7.30;;;6.60;;
66472;SDS011;53291;51.680;8.344;2022-07-25T13:48:51;7.70;;;5.30;;
66472;SDS011;53291;51.680;8.344;2022-07-25T13:51:19;9.35;;;5.55;;
66472;SDS011;53291;51.680;8.344;2022-07-25T13:53:44;7.68;;;6.10;;
66472;SDS011;53291;51.680;8.344;2022-07-25T13:56:09;7.25;;;6.47;;
66472;SDS011;53291;51.680;8.344;2022-07-25T13:58:35;8.00;;;5.35;;
66472;SDS011;53291;51.680;8.344;2022-07-25T14:01:01;8.55;;;5.85;;
66472;SDS011;53291;51.680;8.344;2022-07-25T14:03:26;6.57;;;4.75;;
66472;SDS011;53291;51.680;8.344;2022-07-25T14:05:52;8.02;;;6.05;;
66472;SDS011;53291;51.680;8.344;2022-07-25T14:08:17;6.70;;;6.00;;
66472;SDS011;53291;51.680;8.344;2022-07-25T14:10:43;7.93;;;6.03;;
66472;SDS011;53291;51.680;8.344;2022-07-25T14:13:08;8.35;;;5.00;;
66472;SDS011;53291;51.680;8.344;2022-07-25T14:15:33;9.27;;;6.03;;
66472;SDS011;53291;51.680;8.344;2022-07-25T14:17:59;7.85;;;4.78;;
66472;SDS011;53291;51.680;8.344;2022-07-25T14:20:24;6.70;;;5.68;;
66472;SDS011;53291;51.680;8.344;2022-07-25T14:22:50;7.85;;;4.80;;
66472;SDS011;53291;51.680;8.344;2022-07-25T14:25:15;8.32;;;5.15;;
66472;SDS011;53291;51.680;8.344;2022-07-25T14:27:40;5.95;;;4.20;;
66472;SDS011;53291;51.680;8.344;2022-07-25T14:30:07;7.60;;;5.97;;
66472;SDS011;53291;51.680;8.344;2022-07-25T14:32:33;7.18;;;5.43;;
66472;SDS011;53291;51.680;8.344;2022-07-25T14:34:59;6.55;;;4.43;;
66472;SDS011;53291;51.680;8.344;2022-07-25T14:37:26;7.90;;;5.63;;
66472;SDS011;53291;51.680;8.344;2022-07-25T14:39:52;7.32;;;5.50;;
66472;SDS011;53291;51.680;8.344;2022-07-25T14:42:17;6.70;;;4.47;;
66472;SDS011;53291;51.680;8.344;2022-07-25T14:44:43;6.85;;;4.93;;
66472;SDS011;53291;51.680;8.344;2022-07-25T14:47:08;6.20;;;5.13;;
66472;SDS011;53291;51.680;8.344;2022-07-25T14:49:34;7.63;;;4.38;;
66472;SDS011;53291;51.680;8.344;2022-07-25T14:51:59;7.63;;;6.05;;
66472;SDS011;53291;51.680;8.344;2022-07-25T14:54:25;7.53;;;4.70;;
66472;SDS011;53291;51.680;8.344;2022-07-25T14:56:54;8.02;;;5.78;;
66472;SDS011;53291;51.680;8.344;2022-07-25T14:59:20;6.93;;;5.20;;